sensor_id;sensor_type;location;lat;lon;timestamp;P1;durP1;ratioP1;P2;durP2;ratioP2
46729;SDS011;32476;50.002;11.854;2023-03-01T00:01:27;28.93;;;14.93;;
46729;SDS011;32476;50.002;11.854;2023-03-01T00:03:55;30.57;;;15.37;;
46729;SDS011;32476;50.002;11.854;2023-03-01T00:06:25;26.30;;;13.77;;
46729;SDS011;32476;50.002;11.854;2023-03-01T00:08:51;28.73;;;14.60;;
46729;SDS011;32476;50.002;11.854;2023-03-01T00:11:22;31.80;;;15.33;;
46729;SDS011;32476;50.002;11.854;2023-03-01T00:13:53;27.43;;;14.30;;
46729;SDS011;32476;50.002;11.854;2023-03-01T00:16:26;28.57;;;14.20;;
46729;SDS011;32476;50.002;11.854;2023-03-01T00:19:00;27.73;;;14.50;;
46729;SDS011;32476;50.002;11.854;2023-03-01T00:21:26;27.20;;;14.73;;
46729;SDS011;32476;50.002;11.854;2023-03-01T00:23:53;26.40;;;13.47;;
46729;SDS011;32476;50.002;11.854;2023-03-01T00:26:21;29.60;;;14.63;;
46729;SDS011;32476;50.002;11.854;2023-03-01T00:28:49;36.37;;;15.37;;
46729;SDS011;32476;50.002;11.854;2023-03-01T00:31:17;30.73;;;15.03;;
46729;SDS011;32476;50.002;11.854;2023-03-01T00:33:51;29.03;;;14.10;;
46729;SDS011;32476;50.002;11.854;2023-03-01T00:36:22;34.70;;;15.07;;
46729;SDS011;32476;50.002;11.854;2023-03-01T00:38:55;29.20;;;14.43;;
46729;SDS011;32476;50.002;11.854;2023-03-01T00:41:22;27.60;;;13.77;;
46729;SDS011;32476;50.002;11.854;2023-03-01T00:43:48;27.77;;;14.67;;
46729;SDS011;32476;50.002;11.854;2023-03-01T00:46:17;28.17;;;13.67;;
46729;SDS011;32476;50.002;11.854;2023-03-01T00:48:46;25.13;;;13.73;;
46729;SDS011;32476;50.002;11.854;2023-03-01T00:51:17;26.90;;;14.77;;
46729;SDS011;32476;50.002;11.854;2023-03-01T00:53:51;25.13;;;14.00;;
46729;SDS011;32476;50.002;11.854;2023-03-01T00:56:23;33.33;;;14.80;;
46729;SDS011;32476;50.002;11.854;2023-03-01T00:58:51;29.00;;;15.00;;
46729;SDS011;32476;50.002;11.854;2023-03-01T01:01:19;29.10;;;13.80;;
46729;SDS011;32476;50.002;11.854;2023-03-01T01:03:52;27.47;;;14.13;;
46729;SDS011;32476;50.002;11.854;2023-03-01T01:06:43;29.97;;;13.60;;
46729;SDS011;32476;50.002;11.854;2023-03-01T01:09:12;30.07;;;14.83;;
46729;SDS011;32476;50.002;11.854;2023-03-01T01:11:50;30.93;;;14.67;;
46729;SDS011;32476;50.002;11.854;2023-03-01T01:14:17;29.90;;;15.43;;
46729;SDS011;32476;50.002;11.854;2023-03-01T01:16:45;25.97;;;14.20;;
46729;SDS011;32476;50.002;11.854;2023-03-01T01:19:12;32.17;;;15.80;;
46729;SDS011;32476;50.002;11.854;2023-03-01T01:21:38;22.57;;;13.33;;
46729;SDS011;32476;50.002;11.854;2023-03-01T01:24:06;32.33;;;15.20;;
46729;SDS011;32476;50.002;11.854;2023-03-01T01:26:33;26.17;;;14.60;;
46729;SDS011;32476;50.002;11.854;2023-03-01T01:29:00;28.90;;;13.87;;
46729;SDS011;32476;50.002;11.854;2023-03-01T01:31:30;35.20;;;15.80;;
46729;SDS011;32476;50.002;11.854;2023-03-01T01:33:58;30.77;;;15.47;;
46729;SDS011;32476;50.002;11.854;2023-03-01T01:36:26;26.63;;;14.80;;
46729;SDS011;32476;50.002;11.854;2023-03-01T01:38:54;27.47;;;14.27;;
46729;SDS011;32476;50.002;11.854;2023-03-01T01:41:20;28.60;;;14.50;;
46729;SDS011;32476;50.002;11.854;2023-03-01T01:44:08;32.13;;;16.10;;
46729;SDS011;32476;50.002;11.854;2023-03-01T01:46:43;34.53;;;15.13;;
46729;SDS011;32476;50.002;11.854;2023-03-01T01:49:38;28.93;;;15.00;;
46729;SDS011;32476;50.002;11.854;2023-03-01T01:57:38;31.77;;;15.33;;
46729;SDS011;32476;50.002;11.854;2023-03-01T02:00:14;33.53;;;14.93;;
46729;SDS011;32476;50.002;11.854;2023-03-01T02:02:55;28.67;;;14.37;;
46729;SDS011;32476;50.002;11.854;2023-03-01T02:08:20;30.37;;;15.13;;
46729;SDS011;32476;50.002;11.854;2023-03-01T02:10:50;29.03;;;15.07;;
46729;SDS011;32476;50.002;11.854;2023-03-01T02:13:18;29.90;;;15.27;;
46729;SDS011;32476;50.002;11.854;2023-03-01T02:15:45;31.13;;;15.60;;
46729;SDS011;32476;50.002;11.854;2023-03-01T02:18:12;32.33;;;15.83;;
46729;SDS011;32476;50.002;11.854;2023-03-01T02:23:32;33.80;;;16.10;;
46729;SDS011;32476;50.002;11.854;2023-03-01T02:26:18;35.60;;;15.97;;
46729;SDS011;32476;50.002;11.854;2023-03-01T02:29:03;34.53;;;15.73;;
46729;SDS011;32476;50.002;11.854;2023-03-01T02:31:30;32.90;;;15.87;;
46729;SDS011;32476;50.002;11.854;2023-03-01T02:34:19;33.27;;;16.17;;
46729;SDS011;32476;50.002;11.854;2023-03-01T02:36:54;28.03;;;15.20;;
46729;SDS011;32476;50.002;11.854;2023-03-01T02:39:30;33.30;;;16.30;;
46729;SDS011;32476;50.002;11.854;2023-03-01T02:42:02;38.00;;;16.93;;
46729;SDS011;32476;50.002;11.854;2023-03-01T02:44:31;28.03;;;14.50;;
46729;SDS011;32476;50.002;11.854;2023-03-01T02:46:56;29.53;;;15.90;;
46729;SDS011;32476;50.002;11.854;2023-03-01T02:49:28;29.47;;;15.70;;
46729;SDS011;32476;50.002;11.854;2023-03-01T02:55:03;34.93;;;15.60;;
46729;SDS011;32476;50.002;11.854;2023-03-01T02:57:44;30.17;;;15.97;;
46729;SDS011;32476;50.002;11.854;2023-03-01T03:00:19;32.97;;;15.80;;
46729;SDS011;32476;50.002;11.854;2023-03-01T03:02:52;33.10;;;16.10;;
46729;SDS011;32476;50.002;11.854;2023-03-01T03:05:20;36.07;;;15.97;;
46729;SDS011;32476;50.002;11.854;2023-03-01T03:07:49;32.63;;;15.90;;
46729;SDS011;32476;50.002;11.854;2023-03-01T03:10:22;33.27;;;15.67;;
46729;SDS011;32476;50.002;11.854;2023-03-01T03:12:52;29.20;;;14.80;;
46729;SDS011;32476;50.002;11.854;2023-03-01T03:15:25;34.70;;;16.40;;
46729;SDS011;32476;50.002;11.854;2023-03-01T03:17:52;32.80;;;15.73;;
46729;SDS011;32476;50.002;11.854;2023-03-01T03:20:20;36.23;;;16.90;;
46729;SDS011;32476;50.002;11.854;2023-03-01T03:22:51;33.53;;;16.33;;
46729;SDS011;32476;50.002;11.854;2023-03-01T03:25:19;36.37;;;17.13;;
46729;SDS011;32476;50.002;11.854;2023-03-01T03:27:47;31.00;;;16.33;;
46729;SDS011;32476;50.002;11.854;2023-03-01T03:30:17;38.00;;;17.07;;
46729;SDS011;32476;50.002;11.854;2023-03-01T03:32:45;31.63;;;17.03;;
46729;SDS011;32476;50.002;11.854;2023-03-01T03:37:51;32.60;;;16.83;;
46729;SDS011;32476;50.002;11.854;2023-03-01T03:40:36;32.60;;;16.93;;
46729;SDS011;32476;50.002;11.854;2023-03-01T03:43:05;30.53;;;16.13;;
46729;SDS011;32476;50.002;11.854;2023-03-01T03:45:36;36.23;;;18.30;;
46729;SDS011;32476;50.002;11.854;2023-03-01T03:48:03;38.03;;;16.97;;
46729;SDS011;32476;50.002;11.854;2023-03-01T03:50:30;38.23;;;18.03;;
46729;SDS011;32476;50.002;11.854;2023-03-01T03:53:03;36.27;;;17.50;;
46729;SDS011;32476;50.002;11.854;2023-03-01T03:55:32;35.60;;;16.93;;
46729;SDS011;32476;50.002;11.854;2023-03-01T03:58:01;34.63;;;17.00;;
46729;SDS011;32476;50.002;11.854;2023-03-01T04:00:35;35.60;;;16.30;;
46729;SDS011;32476;50.002;11.854;2023-03-01T04:03:14;35.93;;;15.90;;
46729;SDS011;32476;50.002;11.854;2023-03-01T04:05:41;36.30;;;17.30;;
46729;SDS011;32476;50.002;11.854;2023-03-01T04:08:08;34.80;;;17.40;;
46729;SDS011;32476;50.002;11.854;2023-03-01T04:10:37;32.30;;;17.37;;
46729;SDS011;32476;50.002;11.854;2023-03-01T04:13:09;33.07;;;15.70;;
46729;SDS011;32476;50.002;11.854;2023-03-01T04:15:40;36.20;;;17.23;;
46729;SDS011;32476;50.002;11.854;2023-03-01T04:18:08;32.77;;;17.10;;
46729;SDS011;32476;50.002;11.854;2023-03-01T04:20:40;33.93;;;16.40;;
46729;SDS011;32476;50.002;11.854;2023-03-01T04:23:08;30.47;;;16.27;;
46729;SDS011;32476;50.002;11.854;2023-03-01T04:25:49;38.43;;;18.00;;
46729;SDS011;32476;50.002;11.854;2023-03-01T04:28:22;35.77;;;17.00;;
46729;SDS011;32476;50.002;11.854;2023-03-01T04:31:05;36.20;;;17.77;;
46729;SDS011;32476;50.002;11.854;2023-03-01T04:33:47;33.90;;;16.20;;
46729;SDS011;32476;50.002;11.854;2023-03-01T04:36:21;34.33;;;17.33;;
46729;SDS011;32476;50.002;11.854;2023-03-01T04:38:50;34.33;;;17.17;;
46729;SDS011;32476;50.002;11.854;2023-03-01T04:41:18;32.70;;;15.80;;
46729;SDS011;32476;50.002;11.854;2023-03-01T04:43:48;35.73;;;17.17;;
46729;SDS011;32476;50.002;11.854;2023-03-01T04:46:15;35.80;;;18.00;;
46729;SDS011;32476;50.002;11.854;2023-03-01T04:48:44;38.33;;;17.27;;
46729;SDS011;32476;50.002;11.854;2023-03-01T04:51:13;35.17;;;17.10;;
46729;SDS011;32476;50.002;11.854;2023-03-01T04:53:40;33.53;;;16.67;;
46729;SDS011;32476;50.002;11.854;2023-03-01T04:56:07;34.43;;;16.90;;
46729;SDS011;32476;50.002;11.854;2023-03-01T04:58:34;35.83;;;16.90;;
46729;SDS011;32476;50.002;11.854;2023-03-01T05:01:01;37.53;;;17.23;;
46729;SDS011;32476;50.002;11.854;2023-03-01T05:03:43;32.47;;;16.33;;
46729;SDS011;32476;50.002;11.854;2023-03-01T05:06:10;34.73;;;17.17;;
46729;SDS011;32476;50.002;11.854;2023-03-01T05:08:37;36.20;;;18.07;;
46729;SDS011;32476;50.002;11.854;2023-03-01T05:11:06;35.43;;;16.63;;
46729;SDS011;32476;50.002;11.854;2023-03-01T05:13:36;35.83;;;16.87;;
46729;SDS011;32476;50.002;11.854;2023-03-01T05:16:04;36.03;;;17.33;;
46729;SDS011;32476;50.002;11.854;2023-03-01T05:18:37;38.13;;;17.43;;
46729;SDS011;32476;50.002;11.854;2023-03-01T05:21:06;36.60;;;17.57;;
46729;SDS011;32476;50.002;11.854;2023-03-01T05:23:35;38.87;;;17.00;;
46729;SDS011;32476;50.002;11.854;2023-03-01T05:26:04;36.53;;;18.73;;
46729;SDS011;32476;50.002;11.854;2023-03-01T05:28:31;31.37;;;17.70;;
46729;SDS011;32476;50.002;11.854;2023-03-01T05:30:57;39.67;;;17.70;;
46729;SDS011;32476;50.002;11.854;2023-03-01T05:33:25;33.83;;;17.07;;
46729;SDS011;32476;50.002;11.854;2023-03-01T05:35:52;39.13;;;18.67;;
46729;SDS011;32476;50.002;11.854;2023-03-01T05:38:19;36.87;;;16.87;;
46729;SDS011;32476;50.002;11.854;2023-03-01T05:40:47;35.93;;;17.67;;
46729;SDS011;32476;50.002;11.854;2023-03-01T05:43:14;35.93;;;16.67;;
46729;SDS011;32476;50.002;11.854;2023-03-01T05:45:43;35.77;;;17.13;;
46729;SDS011;32476;50.002;11.854;2023-03-01T05:48:11;34.43;;;17.57;;
46729;SDS011;32476;50.002;11.854;2023-03-01T05:50:39;32.10;;;17.70;;
46729;SDS011;32476;50.002;11.854;2023-03-01T05:53:16;34.43;;;17.83;;
46729;SDS011;32476;50.002;11.854;2023-03-01T05:55:47;37.73;;;17.63;;
46729;SDS011;32476;50.002;11.854;2023-03-01T05:58:16;34.07;;;17.13;;
46729;SDS011;32476;50.002;11.854;2023-03-01T06:00:44;33.17;;;16.90;;
46729;SDS011;32476;50.002;11.854;2023-03-01T06:03:15;39.37;;;17.67;;
46729;SDS011;32476;50.002;11.854;2023-03-01T06:05:42;35.77;;;17.93;;
46729;SDS011;32476;50.002;11.854;2023-03-01T06:08:09;38.97;;;17.73;;
46729;SDS011;32476;50.002;11.854;2023-03-01T06:10:38;35.43;;;17.87;;
46729;SDS011;32476;50.002;11.854;2023-03-01T06:13:04;37.90;;;18.03;;
46729;SDS011;32476;50.002;11.854;2023-03-01T06:15:30;37.57;;;17.77;;
46729;SDS011;32476;50.002;11.854;2023-03-01T06:17:57;39.03;;;18.17;;
46729;SDS011;32476;50.002;11.854;2023-03-01T06:20:24;39.83;;;19.10;;
46729;SDS011;32476;50.002;11.854;2023-03-01T06:22:52;37.13;;;17.30;;
46729;SDS011;32476;50.002;11.854;2023-03-01T06:25:21;42.57;;;18.40;;
46729;SDS011;32476;50.002;11.854;2023-03-01T06:27:49;41.77;;;19.40;;
46729;SDS011;32476;50.002;11.854;2023-03-01T06:30:18;39.00;;;18.83;;
46729;SDS011;32476;50.002;11.854;2023-03-01T06:32:47;34.70;;;17.67;;
46729;SDS011;32476;50.002;11.854;2023-03-01T06:35:14;45.07;;;19.50;;
46729;SDS011;32476;50.002;11.854;2023-03-01T06:37:43;42.13;;;18.17;;
46729;SDS011;32476;50.002;11.854;2023-03-01T06:40:12;38.53;;;18.37;;
46729;SDS011;32476;50.002;11.854;2023-03-01T06:42:40;43.07;;;19.13;;
46729;SDS011;32476;50.002;11.854;2023-03-01T06:45:08;34.33;;;18.13;;
46729;SDS011;32476;50.002;11.854;2023-03-01T06:47:37;38.60;;;19.03;;
46729;SDS011;32476;50.002;11.854;2023-03-01T06:50:03;38.70;;;19.73;;
46729;SDS011;32476;50.002;11.854;2023-03-01T06:52:30;41.67;;;19.70;;
46729;SDS011;32476;50.002;11.854;2023-03-01T06:54:58;41.00;;;19.10;;
46729;SDS011;32476;50.002;11.854;2023-03-01T06:57:24;34.63;;;18.67;;
46729;SDS011;32476;50.002;11.854;2023-03-01T06:59:50;36.57;;;17.90;;
46729;SDS011;32476;50.002;11.854;2023-03-01T07:02:18;36.57;;;18.40;;
46729;SDS011;32476;50.002;11.854;2023-03-01T07:04:44;39.07;;;18.40;;
46729;SDS011;32476;50.002;11.854;2023-03-01T07:07:10;34.20;;;17.73;;
46729;SDS011;32476;50.002;11.854;2023-03-01T07:09:38;37.93;;;18.23;;
46729;SDS011;32476;50.002;11.854;2023-03-01T07:12:04;36.03;;;18.83;;
46729;SDS011;32476;50.002;11.854;2023-03-01T07:14:31;36.57;;;17.23;;
46729;SDS011;32476;50.002;11.854;2023-03-01T07:16:58;35.53;;;17.80;;
46729;SDS011;32476;50.002;11.854;2023-03-01T07:19:24;34.73;;;18.33;;
46729;SDS011;32476;50.002;11.854;2023-03-01T07:21:50;34.63;;;17.13;;
46729;SDS011;32476;50.002;11.854;2023-03-01T07:24:18;44.83;;;19.47;;
46729;SDS011;32476;50.002;11.854;2023-03-01T07:26:47;36.70;;;17.37;;
46729;SDS011;32476;50.002;11.854;2023-03-01T07:29:18;38.87;;;18.00;;
46729;SDS011;32476;50.002;11.854;2023-03-01T07:31:44;32.77;;;17.10;;
46729;SDS011;32476;50.002;11.854;2023-03-01T07:34:11;41.60;;;18.57;;
46729;SDS011;32476;50.002;11.854;2023-03-01T07:36:38;35.33;;;17.43;;
46729;SDS011;32476;50.002;11.854;2023-03-01T07:39:07;39.73;;;17.57;;
46729;SDS011;32476;50.002;11.854;2023-03-01T07:41:34;37.93;;;18.27;;
46729;SDS011;32476;50.002;11.854;2023-03-01T07:44:01;36.20;;;17.57;;
46729;SDS011;32476;50.002;11.854;2023-03-01T07:46:27;37.77;;;18.10;;
46729;SDS011;32476;50.002;11.854;2023-03-01T07:48:53;39.67;;;17.47;;
46729;SDS011;32476;50.002;11.854;2023-03-01T07:51:20;34.17;;;17.40;;
46729;SDS011;32476;50.002;11.854;2023-03-01T07:53:47;33.40;;;17.03;;
46729;SDS011;32476;50.002;11.854;2023-03-01T07:56:14;36.80;;;17.63;;
46729;SDS011;32476;50.002;11.854;2023-03-01T07:58:48;36.03;;;17.53;;
46729;SDS011;32476;50.002;11.854;2023-03-01T08:01:15;34.60;;;17.07;;
46729;SDS011;32476;50.002;11.854;2023-03-01T08:03:43;37.77;;;17.67;;
46729;SDS011;32476;50.002;11.854;2023-03-01T08:06:12;38.17;;;17.70;;
46729;SDS011;32476;50.002;11.854;2023-03-01T08:08:40;33.80;;;17.13;;
46729;SDS011;32476;50.002;11.854;2023-03-01T08:11:06;40.80;;;18.10;;
46729;SDS011;32476;50.002;11.854;2023-03-01T08:13:36;41.43;;;18.50;;
46729;SDS011;32476;50.002;11.854;2023-03-01T08:16:05;35.97;;;17.90;;
46729;SDS011;32476;50.002;11.854;2023-03-01T08:18:36;37.07;;;17.93;;
46729;SDS011;32476;50.002;11.854;2023-03-01T08:21:03;35.40;;;16.73;;
46729;SDS011;32476;50.002;11.854;2023-03-01T08:23:37;34.37;;;17.20;;
46729;SDS011;32476;50.002;11.854;2023-03-01T08:26:12;35.47;;;18.77;;
46729;SDS011;32476;50.002;11.854;2023-03-01T08:28:46;32.73;;;17.40;;
46729;SDS011;32476;50.002;11.854;2023-03-01T08:33:55;35.00;;;17.30;;
46729;SDS011;32476;50.002;11.854;2023-03-01T08:36:29;35.80;;;17.53;;
46729;SDS011;32476;50.002;11.854;2023-03-01T08:38:59;32.10;;;16.80;;
46729;SDS011;32476;50.002;11.854;2023-03-01T08:41:25;35.23;;;18.63;;
46729;SDS011;32476;50.002;11.854;2023-03-01T08:43:53;31.87;;;17.00;;
46729;SDS011;32476;50.002;11.854;2023-03-01T08:46:28;32.50;;;16.13;;
46729;SDS011;32476;50.002;11.854;2023-03-01T08:49:11;33.70;;;17.40;;
46729;SDS011;32476;50.002;11.854;2023-03-01T08:51:44;30.60;;;16.30;;
46729;SDS011;32476;50.002;11.854;2023-03-01T08:54:12;32.67;;;16.80;;
46729;SDS011;32476;50.002;11.854;2023-03-01T08:56:45;36.30;;;17.33;;
46729;SDS011;32476;50.002;11.854;2023-03-01T08:59:13;31.70;;;16.63;;
46729;SDS011;32476;50.002;11.854;2023-03-01T09:01:40;32.10;;;17.30;;
46729;SDS011;32476;50.002;11.854;2023-03-01T09:04:11;34.93;;;17.50;;
46729;SDS011;32476;50.002;11.854;2023-03-01T09:06:38;36.97;;;17.63;;
46729;SDS011;32476;50.002;11.854;2023-03-01T09:09:04;36.57;;;17.40;;
46729;SDS011;32476;50.002;11.854;2023-03-01T09:11:32;32.90;;;16.63;;
46729;SDS011;32476;50.002;11.854;2023-03-01T09:13:58;40.00;;;18.80;;
46729;SDS011;32476;50.002;11.854;2023-03-01T09:16:24;36.63;;;18.43;;
46729;SDS011;32476;50.002;11.854;2023-03-01T09:18:52;35.97;;;17.33;;
46729;SDS011;32476;50.002;11.854;2023-03-01T09:21:20;31.73;;;16.40;;
46729;SDS011;32476;50.002;11.854;2023-03-01T09:23:48;30.83;;;15.13;;
46729;SDS011;32476;50.002;11.854;2023-03-01T09:26:17;32.23;;;15.90;;
46729;SDS011;32476;50.002;11.854;2023-03-01T09:28:47;28.67;;;16.47;;
46729;SDS011;32476;50.002;11.854;2023-03-01T09:31:17;31.43;;;17.77;;
46729;SDS011;32476;50.002;11.854;2023-03-01T09:33:46;33.03;;;16.27;;
46729;SDS011;32476;50.002;11.854;2023-03-01T09:36:19;31.07;;;15.50;;
46729;SDS011;32476;50.002;11.854;2023-03-01T09:38:49;28.40;;;16.73;;
46729;SDS011;32476;50.002;11.854;2023-03-01T09:46:56;30.53;;;15.93;;
46729;SDS011;32476;50.002;11.854;2023-03-01T09:49:26;31.43;;;17.33;;
46729;SDS011;32476;50.002;11.854;2023-03-01T09:52:19;29.57;;;16.07;;
46729;SDS011;32476;50.002;11.854;2023-03-01T09:54:54;36.50;;;17.90;;
46729;SDS011;32476;50.002;11.854;2023-03-01T09:57:26;32.83;;;17.97;;
46729;SDS011;32476;50.002;11.854;2023-03-01T10:00:09;30.73;;;15.97;;
46729;SDS011;32476;50.002;11.854;2023-03-01T10:02:45;28.70;;;15.20;;
46729;SDS011;32476;50.002;11.854;2023-03-01T10:05:47;34.60;;;15.93;;
46729;SDS011;32476;50.002;11.854;2023-03-01T10:08:29;30.63;;;16.07;;
46729;SDS011;32476;50.002;11.854;2023-03-01T10:11:19;26.23;;;14.93;;
46729;SDS011;32476;50.002;11.854;2023-03-01T10:16:36;28.73;;;16.47;;
46729;SDS011;32476;50.002;11.854;2023-03-01T10:19:14;30.00;;;15.00;;
46729;SDS011;32476;50.002;11.854;2023-03-01T10:21:50;26.30;;;16.10;;
46729;SDS011;32476;50.002;11.854;2023-03-01T10:24:17;31.10;;;15.90;;
46729;SDS011;32476;50.002;11.854;2023-03-01T10:26:47;30.30;;;16.00;;
46729;SDS011;32476;50.002;11.854;2023-03-01T10:29:24;26.90;;;14.90;;
46729;SDS011;32476;50.002;11.854;2023-03-01T10:32:28;30.43;;;16.73;;
46729;SDS011;32476;50.002;11.854;2023-03-01T10:34:56;33.03;;;19.07;;
46729;SDS011;32476;50.002;11.854;2023-03-01T10:37:22;31.20;;;18.30;;
46729;SDS011;32476;50.002;11.854;2023-03-01T10:42:31;32.47;;;16.33;;
46729;SDS011;32476;50.002;11.854;2023-03-01T10:48:16;30.50;;;16.90;;
46729;SDS011;32476;50.002;11.854;2023-03-01T10:50:45;30.63;;;16.53;;
46729;SDS011;32476;50.002;11.854;2023-03-01T10:56:11;30.10;;;16.53;;
46729;SDS011;32476;50.002;11.854;2023-03-01T10:59:03;26.67;;;16.67;;
46729;SDS011;32476;50.002;11.854;2023-03-01T11:01:32;30.87;;;16.03;;
46729;SDS011;32476;50.002;11.854;2023-03-01T11:06:33;28.80;;;15.00;;
46729;SDS011;32476;50.002;11.854;2023-03-01T11:09:13;28.97;;;15.23;;
46729;SDS011;32476;50.002;11.854;2023-03-01T11:11:42;27.63;;;14.80;;
46729;SDS011;32476;50.002;11.854;2023-03-01T11:16:45;27.73;;;15.73;;
46729;SDS011;32476;50.002;11.854;2023-03-01T11:19:15;24.17;;;15.37;;
46729;SDS011;32476;50.002;11.854;2023-03-01T11:21:50;31.87;;;17.27;;
46729;SDS011;32476;50.002;11.854;2023-03-01T11:24:27;27.40;;;15.60;;
46729;SDS011;32476;50.002;11.854;2023-03-01T11:27:20;27.70;;;16.23;;
46729;SDS011;32476;50.002;11.854;2023-03-01T11:30:15;30.67;;;15.03;;
46729;SDS011;32476;50.002;11.854;2023-03-01T11:35:37;27.53;;;15.10;;
46729;SDS011;32476;50.002;11.854;2023-03-01T11:38:19;27.37;;;14.33;;
46729;SDS011;32476;50.002;11.854;2023-03-01T11:46:37;28.20;;;15.23;;
46729;SDS011;32476;50.002;11.854;2023-03-01T12:00:49;24.50;;;14.57;;
46729;SDS011;32476;50.002;11.854;2023-03-01T12:03:47;30.57;;;15.80;;
46729;SDS011;32476;50.002;11.854;2023-03-01T12:06:56;25.73;;;15.23;;
46729;SDS011;32476;50.002;11.854;2023-03-01T12:09:44;25.17;;;14.70;;
46729;SDS011;32476;50.002;11.854;2023-03-01T12:12:44;30.33;;;15.30;;
46729;SDS011;32476;50.002;11.854;2023-03-01T12:15:39;25.30;;;14.13;;
46729;SDS011;32476;50.002;11.854;2023-03-01T12:18:46;27.37;;;14.30;;
46729;SDS011;32476;50.002;11.854;2023-03-01T12:21:45;25.17;;;13.60;;
46729;SDS011;32476;50.002;11.854;2023-03-01T12:30:39;23.37;;;13.77;;
46729;SDS011;32476;50.002;11.854;2023-03-01T12:42:13;23.47;;;14.07;;
46729;SDS011;32476;50.002;11.854;2023-03-01T12:45:02;21.50;;;13.27;;
46729;SDS011;32476;50.002;11.854;2023-03-01T12:51:09;25.10;;;13.70;;
46729;SDS011;32476;50.002;11.854;2023-03-01T12:53:42;21.63;;;13.57;;
46729;SDS011;32476;50.002;11.854;2023-03-01T12:56:21;23.63;;;14.97;;
46729;SDS011;32476;50.002;11.854;2023-03-01T13:00:00;27.23;;;13.67;;
46729;SDS011;32476;50.002;11.854;2023-03-01T13:07:55;25.83;;;14.47;;
46729;SDS011;32476;50.002;11.854;2023-03-01T13:10:58;23.30;;;13.57;;
46729;SDS011;32476;50.002;11.854;2023-03-01T13:13:28;21.90;;;13.60;;
46729;SDS011;32476;50.002;11.854;2023-03-01T13:15:57;22.90;;;13.43;;
46729;SDS011;32476;50.002;11.854;2023-03-01T13:19:21;25.03;;;13.83;;
46729;SDS011;32476;50.002;11.854;2023-03-01T13:21:51;26.77;;;13.73;;
46729;SDS011;32476;50.002;11.854;2023-03-01T13:24:27;22.90;;;13.83;;
46729;SDS011;32476;50.002;11.854;2023-03-01T13:29:43;25.13;;;14.73;;
46729;SDS011;32476;50.002;11.854;2023-03-01T13:32:28;26.37;;;13.43;;
46729;SDS011;32476;50.002;11.854;2023-03-01T13:35:02;24.37;;;13.83;;
46729;SDS011;32476;50.002;11.854;2023-03-01T13:37:50;26.47;;;14.33;;
46729;SDS011;32476;50.002;11.854;2023-03-01T13:42:50;21.30;;;12.90;;
46729;SDS011;32476;50.002;11.854;2023-03-01T13:48:26;23.50;;;13.60;;
46729;SDS011;32476;50.002;11.854;2023-03-01T13:51:20;25.07;;;13.27;;
46729;SDS011;32476;50.002;11.854;2023-03-01T13:53:48;22.20;;;13.10;;
46729;SDS011;32476;50.002;11.854;2023-03-01T13:56:17;21.90;;;13.63;;
46729;SDS011;32476;50.002;11.854;2023-03-01T14:01:24;21.33;;;13.33;;
46729;SDS011;32476;50.002;11.854;2023-03-01T14:03:56;21.40;;;12.20;;
46729;SDS011;32476;50.002;11.854;2023-03-01T14:06:25;23.63;;;13.20;;
46729;SDS011;32476;50.002;11.854;2023-03-01T14:14:44;22.53;;;12.37;;
46729;SDS011;32476;50.002;11.854;2023-03-01T14:20:22;23.83;;;12.20;;
46729;SDS011;32476;50.002;11.854;2023-03-01T14:22:57;18.80;;;10.63;;
46729;SDS011;32476;50.002;11.854;2023-03-01T14:30:48;20.47;;;11.67;;
46729;SDS011;32476;50.002;11.854;2023-03-01T14:33:19;21.60;;;12.07;;
46729;SDS011;32476;50.002;11.854;2023-03-01T14:38:37;22.40;;;12.17;;
46729;SDS011;32476;50.002;11.854;2023-03-01T14:41:12;21.73;;;12.17;;
46729;SDS011;32476;50.002;11.854;2023-03-01T14:43:47;20.10;;;11.13;;
46729;SDS011;32476;50.002;11.854;2023-03-01T14:46:21;22.47;;;11.53;;
46729;SDS011;32476;50.002;11.854;2023-03-01T14:49:17;19.03;;;10.87;;
46729;SDS011;32476;50.002;11.854;2023-03-01T14:51:52;17.60;;;10.37;;
46729;SDS011;32476;50.002;11.854;2023-03-01T14:54:28;19.27;;;11.27;;
46729;SDS011;32476;50.002;11.854;2023-03-01T14:57:23;20.60;;;12.00;;
46729;SDS011;32476;50.002;11.854;2023-03-01T14:59:53;22.03;;;11.90;;
46729;SDS011;32476;50.002;11.854;2023-03-01T15:02:24;19.30;;;11.57;;
46729;SDS011;32476;50.002;11.854;2023-03-01T15:04:57;18.60;;;10.73;;
46729;SDS011;32476;50.002;11.854;2023-03-01T15:07:28;25.67;;;12.67;;
46729;SDS011;32476;50.002;11.854;2023-03-01T15:10:00;22.00;;;11.40;;
46729;SDS011;32476;50.002;11.854;2023-03-01T15:15:19;23.47;;;11.23;;
46729;SDS011;32476;50.002;11.854;2023-03-01T15:17:50;19.80;;;10.40;;
46729;SDS011;32476;50.002;11.854;2023-03-01T15:20:24;15.97;;;9.57;;
46729;SDS011;32476;50.002;11.854;2023-03-01T15:22:54;17.47;;;9.30;;
46729;SDS011;32476;50.002;11.854;2023-03-01T15:25:22;25.10;;;10.90;;
46729;SDS011;32476;50.002;11.854;2023-03-01T15:27:54;22.87;;;10.93;;
46729;SDS011;32476;50.002;11.854;2023-03-01T15:30:24;24.37;;;12.00;;
46729;SDS011;32476;50.002;11.854;2023-03-01T15:35:57;25.37;;;12.40;;
46729;SDS011;32476;50.002;11.854;2023-03-01T15:39:04;26.73;;;12.57;;
46729;SDS011;32476;50.002;11.854;2023-03-01T15:41:32;24.10;;;12.73;;
46729;SDS011;32476;50.002;11.854;2023-03-01T15:44:14;23.47;;;12.47;;
46729;SDS011;32476;50.002;11.854;2023-03-01T15:46:45;30.10;;;12.73;;
46729;SDS011;32476;50.002;11.854;2023-03-01T15:52:13;25.83;;;14.10;;
46729;SDS011;32476;50.002;11.854;2023-03-01T15:54:59;23.90;;;13.47;;
46729;SDS011;32476;50.002;11.854;2023-03-01T15:57:32;24.73;;;13.00;;
46729;SDS011;32476;50.002;11.854;2023-03-01T16:00:00;23.40;;;13.70;;
46729;SDS011;32476;50.002;11.854;2023-03-01T16:02:26;23.93;;;14.07;;
46729;SDS011;32476;50.002;11.854;2023-03-01T16:04:52;24.87;;;14.13;;
46729;SDS011;32476;50.002;11.854;2023-03-01T16:07:20;22.70;;;14.07;;
46729;SDS011;32476;50.002;11.854;2023-03-01T16:09:46;25.47;;;14.70;;
46729;SDS011;32476;50.002;11.854;2023-03-01T16:12:14;24.43;;;14.77;;
46729;SDS011;32476;50.002;11.854;2023-03-01T16:14:43;27.23;;;14.27;;
46729;SDS011;32476;50.002;11.854;2023-03-01T16:17:09;28.10;;;14.30;;
46729;SDS011;32476;50.002;11.854;2023-03-01T16:19:40;25.43;;;15.13;;
46729;SDS011;32476;50.002;11.854;2023-03-01T16:22:10;32.50;;;16.07;;
46729;SDS011;32476;50.002;11.854;2023-03-01T16:24:36;29.27;;;15.33;;
46729;SDS011;32476;50.002;11.854;2023-03-01T16:27:02;33.27;;;14.90;;
46729;SDS011;32476;50.002;11.854;2023-03-01T16:29:30;25.03;;;15.43;;
46729;SDS011;32476;50.002;11.854;2023-03-01T16:31:59;25.33;;;14.50;;
46729;SDS011;32476;50.002;11.854;2023-03-01T16:34:26;25.90;;;15.53;;
46729;SDS011;32476;50.002;11.854;2023-03-01T16:36:53;25.87;;;14.80;;
46729;SDS011;32476;50.002;11.854;2023-03-01T16:39:19;29.00;;;15.57;;
46729;SDS011;32476;50.002;11.854;2023-03-01T16:41:46;28.80;;;15.57;;